Weather at Brampton-Caledon Airport

Public forecast

Using degrees Celsius for public forecast. Weather courtesy of forecast.io.

Closest aviation weather report (METAR) to Brampton-Caledon Airport

Closest report is Lester B. Pearson International Airport, 11.7 nm (21.7 km) ESE. Retrieved 2020/12/01 01:00 UTC (22 minutes ago):

CYYZ 010100Z 35020KT 5SM -RA BR OVC009 02/01 A2946 RMK SF8 SLP982

Closest aviation forecast (TAF) to Brampton-Caledon Airport

Closest forecast is Lester B. Pearson International Airport, 11.7 nm (21.7 km) ESE. Retrieved 2020-12-01 00:45 UTC (37 minutes ago):

TAF CYYZ 302343Z 0100/0206 35015G25KT 6SM -RA BR OVC012 TEMPO 0100/0103 5SM -RA -DZ BR BKN008 OVC012 FM010300 35015G25KT 21/2SM -RASN BR BKN008 OVC012 TEMPO 0103/0106 6SM -RA BR OVC012 FM010600 35015G25KT 11/2SM -SN OVC012 FM011400 34015G25KT 3SM -SN OVC012 FM011800 33015KT 6SM -SN OVC015 FM012100 29012KT P6SM -SN OVC015 PROB30 0121/0206 2SM -SHSN RMK NXT FCST BY 010300Z